Glenshee, United Kingdom
Current Conditions -  °F | °C
As of 6:20 PM on Monday 26 Jan 2015 (Local Time) from EGPN Reporting Station
Few Clouds Few Clouds  
Wind Chill: 33°   Ceiling: Unl
Heat Index: 41°   Visibility: 6mi
Dew Point: 34°   Wind: 14mph
Humidity: 76%   Direction: 270°W
Pressure: 30.15"   Gusts: NA
Location:  56.81°N, 3.46°W
Report Text: EGPN 261820Z 27012KT 9999 FEW045 05/01 Q1021
Loading
Personal Weather Stations






























Interactive Weather Map New forecast layout! Learn more

10-Day Weather Forecast

Advertisements
Track Severe Weather on mobile